Time;durP1;ratioP1;P1;durP2;ratioP2;P2;SDS_P1;SDS_P2;PMS_P1;PMS_P2;Temp;Humidity;BMP_temperature;BMP_pressure;BME280_temperature;BME280_humidity;BME280_pressure;Samples;Min_cycle;Max_cycle;Signal;HPM_P1;HPM_P2
2024/01/23 00:00:24;;;;;;;4.30;0.70;;;8.40;99.90;;;;;;5113352;28;20030;-78
2024/01/23 00:02:50;;;;;;;7.85;1.00;;;8.40;99.90;;;;;;5112324;28;20032;-78
2024/01/23 00:05:16;;;;;;;2.88;0.80;;;8.50;99.90;;;;;;5090252;28;20457;-78
2024/01/23 00:07:41;;;;;;;7.15;0.95;;;8.40;99.90;;;;;;5124667;27;20111;-78
2024/01/23 00:10:07;;;;;;;4.07;0.90;;;8.40;99.90;;;;;;5097099;28;20330;-79
2024/01/23 00:12:33;;;;;;;6.00;1.13;;;8.40;99.90;;;;;;5108136;28;20023;-79
2024/01/23 00:14:58;;;;;;;3.60;0.68;;;8.40;99.90;;;;;;5103860;28;20794;-77
2024/01/23 00:17:24;;;;;;;3.90;0.95;;;8.40;99.90;;;;;;5101088;28;20025;-78
2024/01/23 00:19:50;;;;;;;6.15;1.40;;;8.50;99.90;;;;;;5111130;28;20026;-79
2024/01/23 00:22:15;;;;;;;3.88;0.80;;;8.50;99.90;;;;;;5098332;28;20012;-78
2024/01/23 00:24:41;;;;;;;4.20;1.08;;;8.50;99.90;;;;;;5106157;28;20068;-79
2024/01/23 00:27:08;;;;;;;6.22;1.02;;;8.50;99.90;;;;;;5105167;28;20027;-79
2024/01/23 00:29:34;;;;;;;7.75;0.90;;;8.50;99.90;;;;;;5099250;28;20046;-78
2024/01/23 00:32:00;;;;;;;6.15;0.90;;;8.50;99.90;;;;;;5078901;28;20105;-79
2024/01/23 00:34:26;;;;;;;6.75;1.05;;;8.50;99.90;;;;;;5114303;28;20024;-79
2024/01/23 00:36:52;;;;;;;10.55;1.50;;;8.60;99.90;;;;;;5095154;28;20030;-79
2024/01/23 00:39:18;;;;;;;6.53;0.90;;;8.60;99.90;;;;;;5102056;28;20076;-79
2024/01/23 00:41:43;;;;;;;4.55;1.02;;;8.60;99.90;;;;;;5109925;28;20047;-78
2024/01/23 00:44:09;;;;;;;4.05;1.00;;;8.60;99.90;;;;;;5095513;28;20022;-81
2024/01/23 00:46:34;;;;;;;10.02;1.40;;;8.60;99.90;;;;;;5113405;28;20099;-77
2024/01/23 00:49:00;;;;;;;6.82;0.88;;;8.60;99.90;;;;;;5094751;28;20053;-78
2024/01/23 00:51:27;;;;;;;3.65;1.20;;;8.60;99.90;;;;;;5113329;28;20353;-78
2024/01/23 00:53:52;;;;;;;4.18;0.90;;;8.60;99.90;;;;;;5094768;28;20020;-77
2024/01/23 00:56:18;;;;;;;5.65;1.45;;;8.60;99.90;;;;;;5113414;28;20360;-79
2024/01/23 00:58:44;;;;;;;7.07;1.08;;;8.60;99.90;;;;;;5095014;28;20119;-78
2024/01/23 01:01:09;;;;;;;5.70;0.80;;;8.60;99.90;;;;;;5094646;28;20024;-77
2024/01/23 01:03:35;;;;;;;8.95;1.38;;;8.50;99.90;;;;;;5095118;28;20429;-77
2024/01/23 01:06:00;;;;;;;6.90;0.68;;;8.50;99.90;;;;;;5094064;28;20023;-79
2024/01/23 01:08:26;;;;;;;7.72;1.00;;;8.50;99.90;;;;;;5095152;28;20024;-79
2024/01/23 01:10:51;;;;;;;6.07;1.20;;;8.50;99.90;;;;;;5094354;28;20059;-78
2024/01/23 01:13:17;;;;;;;8.32;1.20;;;8.50;99.90;;;;;;5095163;28;20023;-79
2024/01/23 01:15:42;;;;;;;6.40;0.88;;;8.50;99.90;;;;;;5095013;28;20024;-80
2024/01/23 01:18:08;;;;;;;9.13;1.30;;;8.50;99.90;;;;;;5095590;28;20368;-79
2024/01/23 01:20:34;;;;;;;4.22;0.82;;;8.40;99.90;;;;;;5095168;28;20020;-80
2024/01/23 01:23:00;;;;;;;5.25;0.77;;;8.40;99.90;;;;;;5094004;28;20350;-78
2024/01/23 01:25:25;;;;;;;6.32;0.70;;;8.40;99.90;;;;;;5113376;28;20094;-80
2024/01/23 01:27:51;;;;;;;2.78;0.80;;;8.30;99.90;;;;;;5093970;28;20031;-80
2024/01/23 01:30:17;;;;;;;10.00;0.88;;;8.20;99.90;;;;;;5094964;28;20110;-79
2024/01/23 01:32:42;;;;;;;4.60;0.93;;;8.20;99.90;;;;;;5094643;28;20027;-80
2024/01/23 01:35:08;;;;;;;7.72;1.60;;;8.20;99.90;;;;;;5090699;28;20373;-80
2024/01/23 01:37:33;;;;;;;7.50;1.08;;;8.10;99.90;;;;;;5091773;28;20038;-80
2024/01/23 01:39:59;;;;;;;5.30;0.98;;;8.10;99.90;;;;;;5078347;28;20035;-80
2024/01/23 01:42:25;;;;;;;13.48;1.20;;;8.20;99.90;;;;;;5096834;28;20039;-79
2024/01/23 01:44:50;;;;;;;9.10;1.10;;;8.20;99.90;;;;;;5112346;28;20036;-80
2024/01/23 01:47:18;;;;;;;12.40;2.03;;;8.20;99.90;;;;;;5105701;28;20372;-79
2024/01/23 01:49:44;;;;;;;10.98;1.15;;;8.20;99.90;;;;;;5112376;28;20456;-78
2024/01/23 01:52:11;;;;;;;9.52;1.02;;;8.10;99.90;;;;;;5110512;28;20011;-79
2024/01/23 01:54:40;;;;;;;10.60;1.38;;;8.10;99.90;;;;;;5100324;28;20110;-79
2024/01/23 01:57:07;;;;;;;7.18;1.63;;;8.10;99.90;;;;;;5113143;28;20034;-78
2024/01/23 01:59:33;;;;;;;9.13;2.08;;;8.10;99.90;;;;;;5108337;28;20512;-79
2024/01/23 02:02:00;;;;;;;9.05;1.38;;;8.10;99.90;;;;;;5094147;28;20466;-79
2024/01/23 02:04:25;;;;;;;10.45;1.67;;;8.10;99.90;;;;;;5108089;28;20027;-80
2024/01/23 02:06:51;;;;;;;9.00;1.27;;;8.10;99.90;;;;;;5093629;28;20440;-80
2024/01/23 02:09:17;;;;;;;5.68;1.15;;;8.10;99.90;;;;;;5100473;28;20028;-79
2024/01/23 02:12:00;;;;;;;9.15;1.40;;;8.10;99.90;;;;;;5109131;28;20076;-80
2024/01/23 02:14:26;;;;;;;9.20;1.67;;;8.10;99.90;;;;;;5098450;28;20020;-81
2024/01/23 02:16:52;;;;;;;16.40;2.10;;;8.10;99.90;;;;;;5105115;28;20023;-81
2024/01/23 02:19:17;;;;;;;7.72;1.45;;;8.10;99.90;;;;;;5109645;28;20020;-80
2024/01/23 02:21:43;;;;;;;11.02;1.58;;;8.10;99.90;;;;;;5099926;28;20023;-79
2024/01/23 02:24:09;;;;;;;8.55;1.67;;;8.10;99.90;;;;;;5114010;28;20441;-80
2024/01/23 02:26:34;;;;;;;9.50;1.23;;;8.10;99.90;;;;;;5103270;28;20027;-80
2024/01/23 02:29:00;;;;;;;9.35;1.30;;;8.10;99.90;;;;;;5115643;28;20091;-79
2024/01/23 02:31:26;;;;;;;8.65;1.30;;;8.00;99.90;;;;;;5097537;28;20023;-79
2024/01/23 02:33:51;;;;;;;9.88;1.10;;;8.10;99.90;;;;;;5113045;28;20035;-78
2024/01/23 02:36:17;;;;;;;7.55;1.83;;;8.10;99.90;;;;;;5092775;28;20156;-78
2024/01/23 02:38:42;;;;;;;10.52;1.45;;;8.10;99.90;;;;;;5115609;28;20467;-79
2024/01/23 02:41:10;;;;;;;12.10;1.70;;;8.10;99.90;;;;;;5107353;28;20027;-78
2024/01/23 02:43:38;;;;;;;7.60;1.45;;;8.10;99.90;;;;;;5100397;28;20043;-78
2024/01/23 02:46:04;;;;;;;10.07;1.63;;;8.10;99.90;;;;;;5112906;28;20020;-78
2024/01/23 02:48:30;;;;;;;6.25;1.90;;;8.10;99.90;;;;;;5101459;28;20031;-80
2024/01/23 02:50:55;;;;;;;9.90;1.80;;;8.10;99.90;;;;;;5114563;28;20411;-79
2024/01/23 02:53:21;;;;;;;9.98;1.52;;;8.10;99.90;;;;;;5115421;28;20375;-78
2024/01/23 02:55:47;;;;;;;12.85;1.42;;;8.10;99.90;;;;;;5115182;28;20023;-78
2024/01/23 02:58:15;;;;;;;7.70;1.30;;;8.10;99.90;;;;;;5115486;28;20438;-78
2024/01/23 03:00:42;;;;;;;8.65;1.52;;;8.10;99.90;;;;;;5097038;28;20457;-79
2024/01/23 03:03:08;;;;;;;9.13;1.27;;;8.10;99.90;;;;;;5097731;28;20027;-79
2024/01/23 03:05:33;;;;;;;11.57;1.70;;;8.10;99.90;;;;;;5116506;28;20024;-78
2024/01/23 03:07:59;;;;;;;9.52;2.40;;;8.10;99.90;;;;;;5097307;28;20020;-78
2024/01/23 03:10:25;;;;;;;9.00;1.42;;;8.20;99.90;;;;;;5097582;28;20022;-78
2024/01/23 03:12:50;;;;;;;10.38;1.65;;;8.20;99.90;;;;;;5115717;28;20026;-78
2024/01/23 03:15:16;;;;;;;7.20;1.67;;;8.20;99.90;;;;;;5097762;28;20030;-78
2024/01/23 03:17:42;;;;;;;12.45;2.15;;;8.20;99.90;;;;;;5097485;28;20024;-79
2024/01/23 03:20:08;;;;;;;8.40;1.30;;;8.20;99.90;;;;;;5097691;28;20016;-78
2024/01/23 03:22:33;;;;;;;9.73;1.40;;;8.20;99.90;;;;;;5115739;28;20090;-78
2024/01/23 03:24:59;;;;;;;8.73;1.50;;;8.20;99.90;;;;;;5097048;28;20054;-78
2024/01/23 03:27:25;;;;;;;9.98;1.85;;;8.20;99.90;;;;;;5097803;28;20024;-78
2024/01/23 03:29:55;;;;;;;9.70;1.35;;;8.20;99.90;;;;;;5096311;28;20452;-78
2024/01/23 03:32:20;;;;;;;9.43;2.08;;;8.20;99.90;;;;;;5097515;28;20083;-78
2024/01/23 03:34:46;;;;;;;11.82;1.65;;;8.20;99.90;;;;;;5096976;28;20031;-79
2024/01/23 03:37:12;;;;;;;10.55;2.38;;;8.20;99.90;;;;;;5115781;28;20080;-78
2024/01/23 03:39:37;;;;;;;12.30;1.70;;;8.20;99.90;;;;;;5097546;28;20164;-78
2024/01/23 03:42:03;;;;;;;14.05;1.73;;;8.20;99.90;;;;;;5115046;28;20065;-78
2024/01/23 03:44:29;;;;;;;10.15;2.05;;;8.20;99.90;;;;;;5097461;28;20034;-78
2024/01/23 03:46:55;;;;;;;9.45;1.75;;;8.20;99.90;;;;;;5114944;28;20472;-78
2024/01/23 03:49:22;;;;;;;8.45;1.90;;;8.20;99.90;;;;;;5097343;28;20026;-78
2024/01/23 03:51:48;;;;;;;12.35;1.58;;;8.20;99.90;;;;;;5096837;28;20019;-78
2024/01/23 03:54:14;;;;;;;8.73;1.63;;;8.20;99.90;;;;;;5097400;28;20118;-78
2024/01/23 03:56:39;;;;;;;10.68;1.60;;;8.20;99.90;;;;;;5097143;28;20028;-78
2024/01/23 03:59:05;;;;;;;17.75;1.95;;;8.20;99.90;;;;;;5096611;28;20023;-78
2024/01/23 04:01:31;;;;;;;12.07;1.50;;;8.20;99.90;;;;;;5115218;28;20436;-78
2024/01/23 04:03:56;;;;;;;11.55;1.58;;;8.10;99.90;;;;;;5096734;28;20034;-79
2024/01/23 04:06:22;;;;;;;8.57;1.73;;;8.20;99.90;;;;;;5096829;28;20020;-78
2024/01/23 04:08:47;;;;;;;10.07;1.55;;;8.10;99.90;;;;;;5096554;28;20027;-78
2024/01/23 04:11:13;;;;;;;9.15;2.35;;;8.10;99.90;;;;;;5096832;28;20071;-78
2024/01/23 04:13:38;;;;;;;11.18;1.60;;;8.10;99.90;;;;;;5096894;28;20019;-78
2024/01/23 04:16:07;;;;;;;8.43;1.75;;;8.10;99.90;;;;;;5096212;28;20032;-79
2024/01/23 04:18:33;;;;;;;5.85;1.33;;;8.10;99.90;;;;;;5114861;28;20543;-78
2024/01/23 04:20:59;;;;;;;15.02;1.88;;;8.10;99.90;;;;;;5096087;28;20141;-78
2024/01/23 04:23:25;;;;;;;9.85;1.48;;;8.00;99.90;;;;;;5114739;28;20015;-79
2024/01/23 04:25:51;;;;;;;14.88;1.73;;;8.00;99.90;;;;;;5096402;28;20034;-80
2024/01/23 04:28:16;;;;;;;7.90;1.30;;;8.00;99.90;;;;;;5096866;28;20023;-79
2024/01/23 04:30:42;;;;;;;9.55;1.40;;;8.00;99.90;;;;;;5096891;28;20375;-79
2024/01/23 04:33:08;;;;;;;5.80;1.10;;;8.00;99.90;;;;;;5096148;28;20020;-80
2024/01/23 04:35:34;;;;;;;6.97;1.10;;;8.00;99.90;;;;;;5114520;28;20444;-79
2024/01/23 04:38:00;;;;;;;9.23;1.73;;;8.00;99.90;;;;;;5114110;28;20076;-79
2024/01/23 04:40:25;;;;;;;13.60;2.13;;;8.00;99.90;;;;;;5095470;28;20024;-79
2024/01/23 04:42:51;;;;;;;9.88;2.42;;;8.00;99.90;;;;;;5092370;28;20051;-80
2024/01/23 04:45:16;;;;;;;9.48;1.40;;;8.00;99.90;;;;;;5094078;28;20024;-79
2024/01/23 04:47:42;;;;;;;7.10;1.42;;;7.90;99.90;;;;;;5094034;28;20416;-79
2024/01/23 04:50:08;;;;;;;10.20;1.10;;;7.90;99.90;;;;;;5092662;28;20020;-78
2024/01/23 04:52:34;;;;;;;9.70;1.85;;;7.90;99.90;;;;;;5092975;28;20028;-78
2024/01/23 04:55:00;;;;;;;7.78;1.92;;;7.90;99.90;;;;;;5091990;28;20393;-78
2024/01/23 04:57:31;;;;;;;11.13;1.60;;;7.90;99.90;;;;;;5093997;28;20110;-78
2024/01/23 04:59:58;;;;;;;11.10;1.60;;;7.90;99.90;;;;;;5093483;28;20031;-78
2024/01/23 05:02:23;;;;;;;11.07;1.10;;;7.80;99.90;;;;;;5093679;28;20028;-77
2024/01/23 05:04:49;;;;;;;5.82;1.63;;;7.80;99.90;;;;;;5092202;28;20088;-79
2024/01/23 05:07:14;;;;;;;9.63;1.30;;;7.80;99.90;;;;;;5092398;28;20465;-78
2024/01/23 05:09:40;;;;;;;9.68;1.42;;;7.80;99.90;;;;;;5093608;28;20094;-78
2024/01/23 05:12:06;;;;;;;6.50;1.10;;;7.80;99.90;;;;;;5093072;28;20024;-78
2024/01/23 05:14:32;;;;;;;9.13;1.48;;;7.70;99.90;;;;;;5093482;28;20028;-78
2024/01/23 05:16:57;;;;;;;10.80;1.63;;;7.70;99.90;;;;;;5092052;28;20031;-78
2024/01/23 05:19:23;;;;;;;7.88;1.33;;;7.80;99.90;;;;;;5092436;28;20080;-78
2024/01/23 05:21:48;;;;;;;5.80;1.00;;;7.70;99.90;;;;;;5092112;28;20086;-83
2024/01/23 05:24:14;;;;;;;8.50;1.15;;;7.70;99.90;;;;;;5092282;28;20457;-78
2024/01/23 05:26:40;;;;;;;7.97;1.30;;;7.70;99.90;;;;;;5093442;28;20028;-78
2024/01/23 05:29:05;;;;;;;6.38;1.25;;;7.70;99.90;;;;;;5091887;28;20031;-78
2024/01/23 05:31:31;;;;;;;6.28;0.95;;;7.60;99.90;;;;;;5092356;28;20028;-78
2024/01/23 05:33:56;;;;;;;10.70;1.75;;;7.60;99.90;;;;;;5091857;28;20020;-78
2024/01/23 05:36:22;;;;;;;9.70;1.20;;;7.60;99.90;;;;;;5093335;28;20032;-78
2024/01/23 05:38:48;;;;;;;5.32;2.10;;;7.60;99.90;;;;;;5092562;28;20020;-78
2024/01/23 05:41:14;;;;;;;12.90;1.92;;;7.60;99.90;;;;;;5091862;28;20453;-78
2024/01/23 05:43:39;;;;;;;10.20;2.35;;;7.60;99.90;;;;;;5091917;28;20040;-78
2024/01/23 05:46:05;;;;;;;7.68;1.65;;;7.70;99.90;;;;;;5091883;28;20020;-78
2024/01/23 05:48:31;;;;;;;6.47;1.17;;;7.70;99.90;;;;;;5092255;28;20119;-78
2024/01/23 05:50:56;;;;;;;4.13;1.08;;;7.70;99.90;;;;;;5091597;28;20024;-78
2024/01/23 05:53:22;;;;;;;5.40;1.10;;;7.70;99.90;;;;;;5097037;28;20056;-78
2024/01/23 05:55:48;;;;;;;4.50;0.80;;;7.60;99.90;;;;;;5096009;28;20020;-78
2024/01/23 05:58:13;;;;;;;6.93;1.30;;;7.60;99.90;;;;;;5095120;28;20032;-78
2024/01/23 06:00:39;;;;;;;4.13;0.90;;;7.50;99.90;;;;;;5097213;28;20472;-79
2024/01/23 06:03:05;;;;;;;7.32;1.23;;;7.50;99.90;;;;;;5095736;28;20472;-79
2024/01/23 06:05:30;;;;;;;8.48;1.02;;;7.40;99.90;;;;;;5095901;28;20154;-79
2024/01/23 06:07:56;;;;;;;7.85;1.20;;;7.40;99.90;;;;;;5096717;28;20016;-80
2024/01/23 06:10:22;;;;;;;7.53;0.70;;;7.40;99.90;;;;;;5096134;28;20528;-79
2024/01/23 06:12:47;;;;;;;11.88;0.85;;;7.30;99.90;;;;;;5095967;28;20110;-79
2024/01/23 06:15:14;;;;;;;4.45;0.63;;;7.30;99.90;;;;;;5095115;28;20028;-79
2024/01/23 06:17:40;;;;;;;6.88;1.30;;;7.30;99.90;;;;;;5095703;28;20024;-79
2024/01/23 06:20:07;;;;;;;5.90;1.17;;;7.20;99.90;;;;;;5095172;28;20028;-79
2024/01/23 06:22:35;;;;;;;5.78;0.80;;;7.20;99.90;;;;;;5096996;28;20051;-79
2024/01/23 06:25:08;;;;;;;5.65;0.98;;;7.20;99.90;;;;;;5096287;28;20110;-79
2024/01/23 06:27:35;;;;;;;4.22;0.93;;;7.10;99.90;;;;;;5095614;28;20024;-79
2024/01/23 06:30:01;;;;;;;4.22;0.80;;;7.10;99.90;;;;;;5095177;28;20078;-79
2024/01/23 06:32:27;;;;;;;4.05;0.70;;;7.00;99.90;;;;;;5096482;28;20023;-78
2024/01/23 06:34:53;;;;;;;4.72;0.90;;;7.00;99.90;;;;;;5094533;28;20028;-82
2024/01/23 06:37:19;;;;;;;6.18;1.00;;;7.00;99.90;;;;;;5096366;28;20096;-78
2024/01/23 06:39:45;;;;;;;6.03;1.10;;;7.00;99.90;;;;;;5094703;28;20445;-78
2024/01/23 06:42:11;;;;;;;3.65;0.70;;;7.00;99.90;;;;;;5094114;28;20576;-78
2024/01/23 06:44:37;;;;;;;3.55;0.80;;;6.90;99.90;;;;;;5094915;28;20115;-78
2024/01/23 06:47:03;;;;;;;2.50;0.80;;;6.90;99.90;;;;;;5095927;28;20027;-78
2024/01/23 06:49:29;;;;;;;5.07;0.80;;;6.90;99.90;;;;;;5095656;28;20020;-79
2024/01/23 06:51:54;;;;;;;5.25;0.93;;;6.90;99.90;;;;;;5096658;28;20486;-80
2024/01/23 06:54:20;;;;;;;4.13;0.70;;;6.90;99.90;;;;;;5096520;28;20028;-78
2024/01/23 06:56:46;;;;;;;5.15;1.00;;;6.90;99.90;;;;;;5096266;28;20028;-78
2024/01/23 06:59:12;;;;;;;2.55;0.80;;;6.90;99.90;;;;;;5094311;28;20028;-78
2024/01/23 07:01:38;;;;;;;7.03;0.95;;;6.80;99.90;;;;;;5095263;28;20516;-78
2024/01/23 07:04:04;;;;;;;6.28;0.90;;;6.90;99.90;;;;;;5093033;28;20032;-78
2024/01/23 07:06:30;;;;;;;6.00;0.95;;;6.90;99.90;;;;;;5096059;28;20022;-78
2024/01/23 07:08:55;;;;;;;8.70;0.93;;;6.90;99.90;;;;;;5093861;28;20031;-79
2024/01/23 07:11:21;;;;;;;8.32;1.20;;;6.90;99.90;;;;;;5095742;28;20541;-79
2024/01/23 07:13:47;;;;;;;6.05;1.00;;;6.80;99.90;;;;;;5094552;28;20453;-78
2024/01/23 07:16:12;;;;;;;6.82;0.70;;;6.90;99.90;;;;;;5093963;28;20028;-78
2024/01/23 07:18:38;;;;;;;4.97;1.15;;;6.80;99.90;;;;;;5095407;28;20106;-78
2024/01/23 07:21:04;;;;;;;3.13;0.60;;;6.80;99.90;;;;;;5093663;28;20449;-78
2024/01/23 07:23:30;;;;;;;4.60;1.33;;;6.80;99.90;;;;;;5093985;28;20515;-78
2024/01/23 07:25:58;;;;;;;2.60;0.80;;;6.70;99.90;;;;;;5093467;28;20105;-84
2024/01/23 07:28:23;;;;;;;6.45;0.77;;;6.70;99.90;;;;;;5094131;28;20020;-78
2024/01/23 07:30:49;;;;;;;4.95;1.00;;;6.70;99.90;;;;;;5093897;28;20020;-77
2024/01/23 07:33:15;;;;;;;7.30;1.30;;;6.70;99.90;;;;;;5093394;28;20016;-78
2024/01/23 07:35:41;;;;;;;3.65;1.00;;;6.70;99.90;;;;;;5093741;28;20043;-78
2024/01/23 07:38:10;;;;;;;7.47;1.35;;;6.70;99.90;;;;;;5093410;28;20027;-78
2024/01/23 07:40:41;;;;;;;4.18;1.60;;;6.70;99.90;;;;;;5093968;28;20365;-78
2024/01/23 07:43:07;;;;;;;6.20;1.30;;;6.80;99.90;;;;;;5093084;28;20097;-78
2024/01/23 07:45:33;;;;;;;5.70;1.13;;;6.80;99.90;;;;;;5093629;28;20028;-78
2024/01/23 07:47:59;;;;;;;4.65;1.30;;;6.80;99.90;;;;;;5093205;28;20111;-79
2024/01/23 07:50:24;;;;;;;7.57;1.10;;;6.80;99.90;;;;;;5093672;28;20028;-78
2024/01/23 07:52:50;;;;;;;8.75;1.58;;;6.80;99.90;;;;;;5094758;28;20028;-78
2024/01/23 07:55:16;;;;;;;8.38;1.60;;;6.90;99.90;;;;;;5092890;28;20055;-78
2024/01/23 07:57:41;;;;;;;6.50;1.57;;;6.90;99.90;;;;;;5093342;28;20088;-78
2024/01/23 08:00:07;;;;;;;7.15;1.42;;;6.90;99.90;;;;;;5093023;28;20449;-78
2024/01/23 08:02:33;;;;;;;9.27;1.55;;;6.90;99.90;;;;;;5093439;28;20528;-77
2024/01/23 08:04:59;;;;;;;12.68;2.08;;;7.00;99.90;;;;;;5092220;28;20130;-78
2024/01/23 08:07:25;;;;;;;15.18;2.28;;;7.00;99.90;;;;;;5093206;28;20048;-78
2024/01/23 08:09:51;;;;;;;12.95;1.17;;;7.00;99.90;;;;;;5094085;28;20081;-77
2024/01/23 08:12:17;;;;;;;10.45;1.65;;;7.10;99.90;;;;;;5092547;28;20027;-78
2024/01/23 08:14:43;;;;;;;7.30;1.30;;;7.10;99.90;;;;;;5092892;28;20027;-77
2024/01/23 08:17:10;;;;;;;6.80;1.30;;;7.00;99.90;;;;;;5093933;28;20024;-79
2024/01/23 08:19:37;;;;;;;10.80;1.67;;;7.10;99.90;;;;;;5093504;28;20020;-79
2024/01/23 08:22:03;;;;;;;9.75;1.40;;;7.00;99.90;;;;;;5092952;28;20062;-79
2024/01/23 08:24:29;;;;;;;7.72;1.55;;;7.00;99.90;;;;;;5093267;28;20342;-78
2024/01/23 08:26:55;;;;;;;11.48;1.60;;;7.00;99.90;;;;;;5093354;28;20023;-78
2024/01/23 08:29:20;;;;;;;10.63;2.40;;;7.10;99.90;;;;;;5093897;28;20345;-78
2024/01/23 08:31:46;;;;;;;6.80;1.17;;;7.10;99.90;;;;;;5094122;28;20027;-78
2024/01/23 08:34:11;;;;;;;7.45;1.40;;;7.10;99.90;;;;;;5093478;28;20090;-78
2024/01/23 08:36:37;;;;;;;6.97;1.30;;;7.10;99.90;;;;;;5092798;28;20506;-77
2024/01/23 08:39:03;;;;;;;13.43;2.13;;;7.10;99.90;;;;;;5092567;28;20020;-80
2024/01/23 08:41:29;;;;;;;12.05;2.70;;;7.10;99.90;;;;;;5095063;28;20449;-80
2024/01/23 08:43:55;;;;;;;12.63;2.63;;;7.20;99.90;;;;;;5096740;28;20027;-78
2024/01/23 08:46:21;;;;;;;16.38;2.20;;;7.20;99.90;;;;;;5095615;28;20030;-78
2024/01/23 08:48:47;;;;;;;12.85;1.83;;;7.20;99.90;;;;;;5095788;28;20103;-78
2024/01/23 08:51:13;;;;;;;8.68;1.83;;;7.30;99.90;;;;;;5113556;28;20058;-78
2024/01/23 08:53:38;;;;;;;10.10;1.83;;;7.30;99.90;;;;;;5096000;28;20058;-78
2024/01/23 08:56:04;;;;;;;13.00;2.15;;;7.30;99.90;;;;;;5095084;28;20031;-78
2024/01/23 08:58:29;;;;;;;18.08;2.03;;;7.30;99.90;;;;;;5114020;28;20030;-78
2024/01/23 09:00:55;;;;;;;13.50;1.90;;;7.30;99.90;;;;;;5113999;28;20024;-78
2024/01/23 09:03:21;;;;;;;11.95;1.83;;;7.30;99.90;;;;;;5095528;28;20693;-78
2024/01/23 09:05:47;;;;;;;12.82;2.45;;;7.40;99.90;;;;;;5095888;28;20019;-78
2024/01/23 09:08:13;;;;;;;14.40;1.80;;;7.40;99.90;;;;;;5095368;28;20023;-78
2024/01/23 09:10:39;;;;;;;8.05;1.70;;;7.40;99.90;;;;;;5096187;28;20034;-78
2024/01/23 09:13:05;;;;;;;14.13;2.00;;;7.40;99.90;;;;;;5095369;28;20066;-79
2024/01/23 09:15:31;;;;;;;8.90;1.80;;;7.40;99.90;;;;;;5095759;28;20030;-78
2024/01/23 09:17:57;;;;;;;5.80;1.65;;;7.50;99.90;;;;;;5095918;28;20027;-78
2024/01/23 09:20:23;;;;;;;9.35;2.15;;;7.50;99.90;;;;;;5095542;28;20031;-78
2024/01/23 09:22:50;;;;;;;10.63;1.60;;;7.50;99.90;;;;;;5095873;28;20023;-78
2024/01/23 09:25:17;;;;;;;6.82;1.48;;;7.60;99.90;;;;;;5095356;28;20019;-78
2024/01/23 09:27:43;;;;;;;10.63;1.75;;;7.60;99.90;;;;;;5098315;28;20456;-78
2024/01/23 09:30:09;;;;;;;10.00;1.63;;;7.60;99.90;;;;;;5117540;28;20023;-78
2024/01/23 09:32:34;;;;;;;8.30;1.77;;;7.70;99.90;;;;;;5099316;28;20019;-78
2024/01/23 09:35:00;;;;;;;13.43;1.88;;;7.70;99.90;;;;;;5117880;28;20031;-78
2024/01/23 09:37:27;;;;;;;8.82;1.55;;;7.70;99.90;;;;;;5099550;28;20031;-78
2024/01/23 09:39:52;;;;;;;9.43;2.00;;;7.70;99.90;;;;;;5099853;28;20037;-78
2024/01/23 09:42:21;;;;;;;9.38;1.70;;;7.80;99.90;;;;;;5095645;28;20461;-79
2024/01/23 09:44:47;;;;;;;7.30;1.80;;;7.80;99.90;;;;;;5097398;28;20341;-79
2024/01/23 09:47:13;;;;;;;11.02;2.10;;;7.80;99.90;;;;;;5095869;28;20024;-79
2024/01/23 09:49:40;;;;;;;11.40;2.38;;;7.90;99.90;;;;;;5096465;28;20077;-79
2024/01/23 09:52:07;;;;;;;12.60;2.40;;;7.90;99.90;;;;;;5095692;28;20020;-79
2024/01/23 09:54:33;;;;;;;8.35;1.63;;;7.90;99.90;;;;;;5097076;28;20360;-78
2024/01/23 09:56:59;;;;;;;9.73;1.60;;;7.90;99.90;;;;;;5095858;28;20024;-78
2024/01/23 09:59:25;;;;;;;21.92;2.97;;;8.00;99.90;;;;;;5096697;28;20028;-78
2024/01/23 10:01:56;;;;;;;9.68;1.65;;;8.00;99.90;;;;;;5096363;28;20031;-79
2024/01/23 10:04:21;;;;;;;15.23;1.88;;;8.10;99.90;;;;;;5096765;28;20466;-79
2024/01/23 10:06:47;;;;;;;11.32;2.20;;;8.20;99.90;;;;;;5095997;28;20027;-79
2024/01/23 10:09:13;;;;;;;8.50;1.83;;;8.20;99.90;;;;;;5095665;28;20020;-79
2024/01/23 10:11:38;;;;;;;10.82;1.77;;;8.20;99.90;;;;;;5097136;28;20098;-78
2024/01/23 10:14:06;;;;;;;16.85;2.50;;;8.20;99.90;;;;;;5095712;28;20407;-78
2024/01/23 10:16:32;;;;;;;17.55;2.85;;;8.30;99.90;;;;;;5096842;28;20074;-79
2024/01/23 10:18:58;;;;;;;12.65;1.63;;;8.30;99.90;;;;;;5095718;28;20020;-78
2024/01/23 10:21:24;;;;;;;15.18;3.30;;;8.40;99.90;;;;;;5096074;28;20449;-78
2024/01/23 10:23:50;;;;;;;14.93;1.85;;;8.40;99.90;;;;;;5096762;28;20023;-79
2024/01/23 10:26:20;;;;;;;8.20;2.38;;;8.50;99.90;;;;;;5095223;28;20369;-78
2024/01/23 10:28:46;;;;;;;8.45;1.85;;;8.50;99.90;;;;;;5095767;28;20024;-79
2024/01/23 10:31:12;;;;;;;14.00;1.95;;;8.60;99.90;;;;;;5095080;28;20024;-79
2024/01/23 10:33:38;;;;;;;11.80;2.03;;;8.70;99.90;;;;;;5095367;28;20024;-79
2024/01/23 10:36:11;;;;;;;8.00;1.42;;;8.70;99.90;;;;;;5095710;28;20031;-78
2024/01/23 10:38:37;;;;;;;8.25;1.58;;;8.80;99.90;;;;;;5095627;28;20024;-78
2024/01/23 10:41:07;;;;;;;14.15;2.95;;;9.00;99.90;;;;;;5096431;28;20019;-77
2024/01/23 10:43:34;;;;;;;17.65;2.40;;;9.00;99.90;;;;;;5115145;28;20040;-78
2024/01/23 10:46:03;;;;;;;9.43;2.10;;;9.10;99.90;;;;;;5098742;28;20464;-78
2024/01/23 10:48:33;;;;;;;13.82;2.10;;;9.10;99.90;;;;;;5098344;28;20131;-78
2024/01/23 10:51:16;;;;;;;9.75;2.20;;;9.10;99.90;;;;;;5098562;28;20456;-78
2024/01/23 10:53:54;;;;;;;10.60;2.08;;;9.20;99.90;;;;;;5116239;28;20372;-79
2024/01/23 10:56:21;;;;;;;5.28;1.45;;;9.30;99.90;;;;;;5097890;28;20483;-78
2024/01/23 10:59:01;;;;;;;6.82;1.40;;;9.30;99.90;;;;;;5095909;28;20426;-79
2024/01/23 11:01:34;;;;;;;9.40;1.60;;;9.30;99.90;;;;;;5110964;28;20395;-81
2024/01/23 11:04:01;;;;;;;13.35;1.67;;;9.40;99.90;;;;;;5097948;28;20058;-79
2024/01/23 11:06:32;;;;;;;12.02;1.45;;;9.30;99.90;;;;;;5097228;28;20041;-78
2024/01/23 11:09:08;;;;;;;11.57;1.50;;;9.30;99.90;;;;;;5116406;28;20016;-80
2024/01/23 11:11:58;;;;;;;11.80;1.85;;;9.30;99.90;;;;;;5116137;28;20121;-80
2024/01/23 11:14:27;;;;;;;13.52;1.88;;;9.30;99.90;;;;;;5081297;28;20083;-80
2024/01/23 11:17:05;;;;;;;15.45;1.50;;;9.30;99.90;;;;;;5097614;28;20122;-80
2024/01/23 11:19:34;;;;;;;10.45;2.17;;;9.30;99.90;;;;;;5090047;28;20034;-80
2024/01/23 11:22:02;;;;;;;9.27;1.80;;;9.20;99.90;;;;;;5098013;28;20087;-82
2024/01/23 11:24:47;;;;;;;9.95;1.45;;;9.30;99.90;;;;;;5097472;28;20055;-82
2024/01/23 11:27:24;;;;;;;7.65;1.63;;;9.30;99.90;;;;;;5097166;28;20023;-83
2024/01/23 11:29:50;;;;;;;10.73;1.88;;;9.40;99.90;;;;;;5087899;28;20092;-81
2024/01/23 11:32:23;;;;;;;7.10;1.30;;;9.40;99.90;;;;;;5096128;28;20115;-81
2024/01/23 11:35:14;;;;;;;10.18;2.10;;;9.50;99.90;;;;;;5097543;28;20024;-82
2024/01/23 11:37:54;;;;;;;12.48;2.38;;;9.50;99.90;;;;;;5097870;28;20023;-82
2024/01/23 11:40:30;;;;;;;9.68;1.30;;;9.60;99.90;;;;;;5096950;28;20015;-82
2024/01/23 11:42:58;;;;;;;11.38;1.42;;;9.80;99.90;;;;;;5115302;28;20050;-80
2024/01/23 11:45:28;;;;;;;10.73;1.75;;;9.90;99.90;;;;;;5096699;28;20023;-80
2024/01/23 11:47:58;;;;;;;11.75;1.60;;;10.00;99.90;;;;;;5097200;28;20016;-79
2024/01/23 11:50:26;;;;;;;10.27;1.80;;;10.10;99.90;;;;;;5097448;28;20016;-80
2024/01/23 11:52:54;;;;;;;11.95;1.58;;;10.10;99.90;;;;;;5096943;28;20114;-80
2024/01/23 11:55:20;;;;;;;12.27;2.10;;;10.20;99.90;;;;;;5114517;28;20436;-80
2024/01/23 11:57:51;;;;;;;8.80;1.80;;;10.10;99.90;;;;;;5097189;28;20020;-80
2024/01/23 12:00:18;;;;;;;11.27;1.60;;;10.00;99.90;;;;;;5085541;28;20024;-81
2024/01/23 12:02:44;;;;;;;8.85;1.77;;;10.10;99.90;;;;;;5096968;28;20024;-81
2024/01/23 12:05:10;;;;;;;16.33;2.90;;;10.10;99.90;;;;;;5095081;28;20023;-83
2024/01/23 12:07:37;;;;;;;13.18;1.75;;;10.10;99.90;;;;;;5093008;28;20342;-77
2024/01/23 12:10:12;;;;;;;7.95;2.08;;;10.00;99.90;;;;;;5093166;28;20119;-79
2024/01/23 12:12:38;;;;;;;14.75;1.80;;;9.90;99.90;;;;;;5096188;28;20024;-80
2024/01/23 12:15:05;;;;;;;8.68;1.95;;;9.90;99.90;;;;;;5096174;28;20028;-80
2024/01/23 12:17:43;;;;;;;9.88;1.80;;;9.90;99.90;;;;;;5096095;28;20483;-78
2024/01/23 12:20:09;;;;;;;10.80;2.33;;;9.80;99.90;;;;;;5095856;28;20023;-85
2024/01/23 12:22:38;;;;;;;11.32;1.55;;;9.90;99.90;;;;;;5096452;28;20084;-80
2024/01/23 12:25:05;;;;;;;10.25;1.45;;;9.90;99.90;;;;;;5096151;28;20019;-81
2024/01/23 12:27:32;;;;;;;9.30;1.20;;;10.00;99.90;;;;;;5095842;28;20492;-80
2024/01/23 12:30:03;;;;;;;8.05;1.88;;;9.80;99.90;;;;;;5085088;28;20031;-78
2024/01/23 12:32:30;;;;;;;9.55;1.80;;;9.70;99.90;;;;;;5075587;28;20027;-79
2024/01/23 12:34:56;;;;;;;11.63;1.65;;;9.60;99.90;;;;;;5083851;28;20073;-79
2024/01/23 12:37:29;;;;;;;9.25;1.60;;;9.60;99.90;;;;;;5113468;28;20028;-80
2024/01/23 12:39:55;;;;;;;11.30;1.42;;;9.60;99.90;;;;;;5095985;28;20129;-79
2024/01/23 12:42:24;;;;;;;11.95;1.67;;;9.60;99.90;;;;;;5095390;28;20252;-79
2024/01/23 12:44:50;;;;;;;9.48;1.70;;;9.60;99.90;;;;;;5096043;28;20032;-80
2024/01/23 12:47:16;;;;;;;7.85;1.92;;;9.50;99.90;;;;;;5095468;28;20023;-80
2024/01/23 12:49:44;;;;;;;11.32;1.63;;;9.50;99.90;;;;;;5113724;28;20027;-80